EmailTwitter


Observations de surface / Québec / CYHU (71371)

Régions: Québec | Canada | États-Unis | Europe | France | UK | Ailleurs
Station
Affichage
Infos & localisation pour CYHU (71371) | Aide pour décoder les METARs

Observations prises le 2017-10-18 à 03H00 UTC à MONTREAL/ST HUBE, QB (CYHU)

Etat du ciel: partiellement nuageux.

Température: 11.0 Celsius

Point de rosée: 4.0 Celsius

Humidité relative: 62%

Vents: Sud à 15 km/h ou 8 noeuds.

Pression au niveau moyen de la mer: 101.65 kilopascals.

Calage altimétrique: 101.62 kilopascals ou 30.01 pouces de mercure.

Visibilité horizontale: 9.00 milles terrestres ou 14.40 kilomètres.

Hauteur du plafond: 5486 mètres ( 18000 pieds ).

Observation METAR:

CYHU 180300Z AUTO 19008KT 9SM SCT130 BKN180 BKN200 BKN240 11/04 A3001 RMK

SLP165=